Minton, Canada
Current Conditions -  °F | °C
As of 5:15 AM on Sunday 21 Dec 2014 (Local Time) from KD50 Reporting Station
Clear Clear  
Wind Chill:   Ceiling: Unl
Heat Index: 19°   Visibility: 10mi
Dew Point: 19°   Wind: 13mph
Humidity: 100%   Direction: 190°S
Pressure: 29.56"   Gusts: NA
Location:  49.17°N, 104.58°W
Report Text: KD50 211115Z AUTO 19011KT 10SM CLR M07/M07 A2956 RMK AO2
Loading
Personal Weather Stations






























Interactive Weather Map New forecast layout! Learn more

10-Day Weather Forecast

Advertisements
Track Severe Weather on mobile